createdAt,value
2019-04-05T00:00:00.774Z,40.23
2019-04-05T00:02:31.159Z,40.24
2019-04-05T00:05:01.566Z,40.28
2019-04-05T00:07:31.898Z,40.29
2019-04-05T00:10:02.183Z,40.33
2019-04-05T00:12:32.518Z,40.34
2019-04-05T00:15:14.630Z,40.39
2019-04-05T00:17:35.118Z,40.43
2019-04-05T00:20:06.377Z,40.48
2019-04-05T00:22:37.120Z,40.52
2019-04-05T00:25:07.680Z,40.54
2019-04-05T00:27:38.026Z,40.55
2019-04-05T00:30:09.196Z,40.58
2019-04-05T00:32:39.970Z,40.58
2019-04-05T00:35:10.336Z,40.62
2019-04-05T00:37:40.738Z,40.62
2019-04-05T00:40:11.381Z,40.65
2019-04-05T00:42:41.721Z,40.63
2019-04-05T00:45:12.170Z,40.67
2019-04-05T00:47:42.567Z,40.72
2019-04-05T00:50:13.197Z,40.73
2019-04-05T00:52:43.547Z,40.73
2019-04-05T00:55:13.985Z,40.73
2019-04-05T00:57:44.695Z,40.77
2019-04-05T01:00:15.485Z,40.77
2019-04-05T01:02:46.215Z,40.76
2019-04-05T01:05:16.507Z,40.72
2019-04-05T01:07:47.180Z,40.73
2019-04-05T01:10:17.994Z,40.74
2019-04-05T01:12:48.631Z,40.75
2019-04-05T01:15:19.678Z,40.75
2019-04-05T01:17:50.318Z,40.75
2019-04-05T01:20:20.758Z,40.75
2019-04-05T01:22:52.657Z,40.77
2019-04-05T01:25:23.458Z,40.89
2019-04-05T01:27:53.780Z,40.80
2019-04-05T01:30:24.155Z,40.91
2019-04-05T01:32:54.493Z,40.91
2019-04-05T01:35:25.743Z,40.87
2019-04-05T01:37:57.485Z,40.94
2019-04-05T01:40:32.164Z,40.92
2019-04-05T01:43:02.819Z,41.01
2019-04-05T01:45:33.410Z,41.06
2019-04-05T01:48:03.783Z,41.26
2019-04-05T01:50:34.415Z,40.96
2019-04-05T01:53:05.386Z,40.96
2019-04-05T01:55:36.268Z,40.91
2019-04-05T01:58:06.652Z,41.16
2019-04-05T02:00:36.984Z,41.16
2019-04-05T02:03:07.332Z,41.00
2019-04-05T02:05:37.658Z,41.00
2019-04-05T02:08:09.967Z,40.96
2019-04-05T02:10:40.829Z,40.96
2019-04-05T02:13:11.220Z,41.04
2019-04-05T02:15:41.561Z,41.11
2019-04-05T02:18:12.180Z,41.14
2019-04-05T02:20:42.905Z,41.15
2019-04-05T02:23:13.265Z,41.15
2019-04-05T02:25:43.598Z,41.23
2019-04-05T02:28:13.962Z,41.21
2019-04-05T02:30:44.767Z,41.25
2019-04-05T02:33:15.602Z,41.23
2019-04-05T02:35:45.958Z,41.22
2019-04-05T02:38:17.873Z,41.24
2019-04-05T02:40:51.400Z,41.25
2019-04-05T02:43:24.438Z,41.28
2019-04-05T02:45:57.028Z,41.31
2019-04-05T02:48:29.102Z,41.30
2019-04-05T02:51:03.141Z,41.31
2019-04-05T02:53:35.410Z,41.35
2019-04-05T02:56:07.426Z,41.36
2019-04-05T02:58:39.074Z,41.39
2019-04-05T03:01:10.134Z,41.40
2019-04-05T03:03:41.074Z,41.42
2019-04-05T03:06:11.481Z,41.43
2019-04-05T03:08:43.229Z,41.47
2019-04-05T03:11:15.510Z,41.49
2019-04-05T03:13:50.917Z,41.51
2019-04-05T03:16:40.804Z,41.55
2019-04-05T03:19:12.453Z,41.58
2019-04-05T03:21:46.345Z,41.61
2019-04-05T03:24:20.196Z,41.66
2019-04-05T03:26:56.288Z,41.67
2019-04-05T03:29:27.451Z,41.62
2019-04-05T03:31:59.136Z,41.62
2019-04-05T03:34:30.134Z,41.78
2019-04-05T03:37:01.556Z,41.85
2019-04-05T03:39:32.172Z,41.85
2019-04-05T03:42:02.928Z,41.84
2019-04-05T03:44:37.288Z,41.85
2019-04-05T03:47:07.734Z,41.87
2019-04-05T03:49:38.072Z,41.96
2019-04-05T03:52:08.717Z,41.95
2019-04-05T03:54:39.701Z,42.00
2019-04-05T03:57:10.038Z,42.01
2019-04-05T03:59:40.849Z,42.04
2019-04-05T04:02:11.364Z,42.11
2019-04-05T04:04:42.056Z,42.13
2019-04-05T04:07:12.881Z,42.17
2019-04-05T04:09:44.100Z,42.20
2019-04-05T04:12:14.537Z,42.20
2019-04-05T04:14:45.828Z,42.24
2019-04-05T04:17:16.663Z,42.29
2019-04-05T04:19:47.164Z,42.34
2019-04-05T04:22:28.122Z,42.41
2019-04-05T04:24:59.927Z,42.43
2019-04-05T04:27:31.280Z,42.54
2019-04-05T04:30:02.272Z,42.60
2019-04-05T04:32:33.029Z,42.65
2019-04-05T04:35:04.031Z,42.69
2019-04-05T04:37:34.501Z,42.65
2019-04-05T04:40:05.911Z,42.82
2019-04-05T04:42:36.217Z,42.88
2019-04-05T04:45:12.398Z,42.91
2019-04-05T04:47:40.963Z,42.97
2019-04-05T04:50:12.223Z,43.03
2019-04-05T04:52:43.106Z,43.11
2019-04-05T04:55:13.842Z,43.16
2019-04-05T04:57:44.511Z,43.27
2019-04-05T05:00:15.434Z,43.36
2019-04-05T05:02:47.047Z,43.41
2019-04-05T05:05:19.234Z,43.48
2019-04-05T05:07:50.800Z,43.54
2019-04-05T05:10:21.596Z,43.62
2019-04-05T05:12:53.527Z,43.71
2019-04-05T05:15:27.214Z,43.76
2019-04-05T05:17:58.725Z,43.82
2019-04-05T05:20:29.576Z,43.89
2019-04-05T05:23:00.104Z,43.96
2019-04-05T05:25:30.682Z,44.03
2019-04-05T05:28:01.104Z,44.11
2019-04-05T05:30:34.074Z,44.19
2019-04-05T05:33:05.312Z,44.23
2019-04-05T05:35:35.772Z,44.30
2019-04-05T05:38:06.273Z,44.38
2019-04-05T05:40:37.082Z,44.46
2019-04-05T05:43:07.880Z,44.52
2019-04-05T05:45:39.015Z,44.60
2019-04-05T05:48:09.854Z,44.68
2019-04-05T05:50:40.318Z,44.84
2019-04-05T05:53:11.345Z,45.01
2019-04-05T05:55:42.213Z,45.20
2019-04-05T05:58:14.315Z,45.39
2019-04-05T06:00:44.651Z,45.48
2019-04-05T06:03:16.638Z,45.52
2019-04-05T06:05:58.353Z,45.53
2019-04-05T06:08:21.973Z,45.52
2019-04-05T06:10:52.867Z,45.55
2019-04-05T06:13:23.352Z,45.60
2019-04-05T06:15:53.737Z,45.75
2019-04-05T06:18:24.427Z,45.91
2019-04-05T06:20:54.767Z,46.03
2019-04-05T06:25:58.990Z,46.32
2019-04-05T06:28:29.400Z,46.28
2019-04-05T06:30:59.699Z,46.24
2019-04-05T06:33:31.880Z,46.24
2019-04-05T06:35:39.483Z,46.26
2019-04-05T06:36:02.132Z,46.24
2019-04-05T06:38:32.280Z,46.29
2019-04-05T06:41:03.000Z,46.37
2019-04-05T06:43:33.334Z,46.51
2019-04-05T06:46:03.853Z,46.67
2019-04-05T06:48:34.260Z,46.81
2019-04-05T06:51:05.485Z,46.95
2019-04-05T06:53:35.916Z,47.03
2019-04-05T06:56:09.076Z,47.04
2019-04-05T06:58:39.389Z,47.08
2019-04-05T07:01:09.772Z,47.21
2019-04-05T07:03:40.096Z,47.30
2019-04-05T07:06:10.903Z,47.39
2019-04-05T07:08:53.161Z,47.42
2019-04-05T07:11:13.329Z,47.45
2019-04-05T07:13:46.076Z,47.52
2019-04-05T07:16:16.380Z,47.60
2019-04-05T07:18:46.699Z,47.55
2019-04-05T07:21:17.552Z,47.54
2019-04-05T07:23:47.944Z,47.56
2019-04-05T07:26:20.804Z,47.60
2019-04-05T07:28:50.382Z,47.64
2019-04-05T07:31:21.542Z,47.68
2019-04-05T07:33:51.871Z,47.70
2019-04-05T07:36:22.205Z,47.65
2019-04-05T07:38:52.594Z,47.62
2019-04-05T07:41:25.119Z,47.62
2019-04-05T07:43:55.532Z,47.64
2019-04-05T07:46:26.107Z,47.70
2019-04-05T07:48:56.547Z,47.72
2019-04-05T07:51:27.464Z,47.76
2019-04-05T07:53:57.944Z,47.77
2019-04-05T07:56:28.365Z,47.77
2019-04-05T07:58:58.708Z,47.79
2019-04-05T08:01:29.201Z,47.82
2019-04-05T08:03:59.562Z,47.86
2019-04-05T08:06:32.062Z,47.89
2019-04-05T08:09:18.254Z,47.89
2019-04-05T08:11:49.416Z,47.96
2019-04-05T08:14:20.677Z,48.01
2019-04-05T08:16:52.350Z,48.07
2019-04-05T08:19:22.694Z,48.10
2019-04-05T08:21:53.381Z,48.14
2019-04-05T08:24:23.724Z,48.20
2019-04-05T08:26:54.601Z,48.26
2019-04-05T08:29:25.411Z,48.37
2019-04-05T08:31:56.122Z,48.43
2019-04-05T08:34:26.497Z,48.51
2019-04-05T08:36:56.902Z,48.58
2019-04-05T08:39:27.569Z,48.68
2019-04-05T08:41:58.199Z,48.75
2019-04-05T08:44:28.865Z,48.80
2019-04-05T08:46:59.273Z,48.88
2019-04-05T08:49:30.743Z,48.96
2019-04-05T08:52:01.358Z,49.07
2019-04-05T08:54:35.030Z,49.21
2019-04-05T08:57:04.178Z,49.29
2019-04-05T08:59:35.081Z,49.44
2019-04-05T09:02:07.005Z,49.59
2019-04-05T09:04:37.410Z,49.75
2019-04-05T09:07:07.737Z,49.84
2019-04-05T09:09:38.078Z,49.86
2019-04-05T09:12:08.869Z,49.95
2019-04-05T09:14:39.591Z,49.91
2019-04-05T09:17:09.929Z,49.96
2019-04-05T09:19:42.798Z,49.95
2019-04-05T09:22:13.521Z,49.95
2019-04-05T09:24:44.928Z,49.89
2019-04-05T09:27:15.344Z,49.77
2019-04-05T09:29:45.807Z,49.86
2019-04-05T09:32:16.717Z,49.84
2019-04-05T09:34:47.188Z,49.73
2019-04-05T09:37:17.544Z,49.70
2019-04-05T09:39:47.930Z,49.66
2019-04-05T09:42:18.309Z,49.67
2019-04-05T09:44:48.737Z,49.60
2019-04-05T09:47:19.359Z,49.53
2019-04-05T09:49:49.707Z,49.48
2019-04-05T09:52:20.034Z,49.50
2019-04-05T09:54:50.396Z,49.52
2019-04-05T09:57:20.864Z,49.46
2019-04-05T09:59:51.236Z,49.45
2019-04-05T10:02:21.623Z,49.49
2019-04-05T10:04:54.099Z,49.43
2019-04-05T10:07:24.431Z,49.34
2019-04-05T10:09:55.703Z,49.29
2019-04-05T10:12:26.028Z,49.26
2019-04-05T10:14:56.610Z,49.25
2019-04-05T10:17:27.458Z,49.31
2019-04-05T10:19:57.789Z,49.40
2019-04-05T10:22:28.200Z,49.50
2019-04-05T10:24:58.683Z,49.61
2019-04-05T10:27:29.086Z,49.66
2019-04-05T10:29:59.531Z,49.59
2019-04-05T10:32:30.305Z,49.48
2019-04-05T10:35:00.682Z,49.46
2019-04-05T10:37:32.692Z,49.41
2019-04-05T10:40:03.733Z,49.47
2019-04-05T10:42:36.282Z,49.40
2019-04-05T10:45:09.576Z,49.36
2019-04-05T10:47:39.932Z,49.34
2019-04-05T10:50:12.432Z,49.43
2019-04-05T10:52:43.024Z,49.44
2019-04-05T10:55:13.550Z,49.47
2019-04-05T10:57:44.407Z,49.50
2019-04-05T11:00:17.444Z,49.33
2019-04-05T11:02:48.156Z,49.31
2019-04-05T11:05:19.087Z,49.34
2019-04-05T11:07:49.462Z,49.51
2019-04-05T11:10:20.269Z,49.63
2019-04-05T11:12:50.719Z,49.66
2019-04-05T11:15:21.282Z,49.56
2019-04-05T11:17:51.762Z,49.44
2019-04-05T11:20:22.663Z,49.40
2019-04-05T11:22:53.176Z,49.40
2019-04-05T11:25:23.749Z,49.39
2019-04-05T11:27:54.105Z,49.41
2019-04-05T11:30:40.461Z,49.43
2019-04-05T11:33:10.879Z,49.37
2019-04-05T11:35:41.493Z,49.36
2019-04-05T11:38:15.507Z,49.38
2019-04-05T11:40:46.531Z,49.40
2019-04-05T11:43:19.595Z,49.37
2019-04-05T11:45:51.864Z,49.42
2019-04-05T11:48:22.443Z,49.43
2019-04-05T11:50:52.808Z,49.31
2019-04-05T11:53:23.125Z,49.32
2019-04-05T11:55:54.001Z,49.26
2019-04-05T11:58:24.760Z,49.22
2019-04-05T12:01:12.278Z,49.18
2019-04-05T12:03:42.661Z,49.20
2019-04-05T12:06:13.076Z,49.24
2019-04-05T12:08:43.864Z,49.25
2019-04-05T12:11:14.295Z,49.29
2019-04-05T12:13:47.502Z,49.22
2019-04-05T12:16:16.970Z,49.18
2019-04-05T12:18:47.352Z,49.12
2019-04-05T12:21:20.796Z,49.01
2019-04-05T12:23:49.864Z,48.92
2019-04-05T12:26:20.233Z,48.90
2019-04-05T12:28:50.605Z,48.87
2019-04-05T12:31:21.814Z,48.79
2019-04-05T12:33:52.621Z,48.74
2019-04-05T12:36:23.244Z,48.67
2019-04-05T12:38:54.355Z,48.69
2019-04-05T12:41:24.809Z,48.72
2019-04-05T12:43:55.884Z,48.72
2019-04-05T12:46:27.341Z,48.66
2019-04-05T12:48:57.763Z,48.65
2019-04-05T12:51:28.961Z,48.59
2019-04-05T12:53:59.376Z,48.60
2019-04-05T12:56:29.769Z,48.56
2019-04-05T12:59:00.282Z,48.57
2019-04-05T13:01:30.980Z,48.46
2019-04-05T13:04:01.472Z,48.43
2019-04-05T13:06:32.437Z,48.39
2019-04-05T13:09:05.369Z,48.39
2019-04-05T13:11:35.045Z,48.45
2019-04-05T13:14:05.370Z,48.50
2019-04-05T13:16:35.772Z,48.47
2019-04-05T13:19:06.143Z,48.35
2019-04-05T13:21:36.848Z,48.23
2019-04-05T13:24:10.017Z,48.13
2019-04-05T13:26:41.674Z,48.08
2019-04-05T13:29:11.775Z,48.10
2019-04-05T13:31:42.164Z,48.06
2019-04-05T13:34:13.457Z,48.03
2019-04-05T13:36:44.741Z,48.01
2019-04-05T13:39:16.606Z,48.02
2019-04-05T13:41:47.056Z,48.00
2019-04-05T13:44:18.415Z,47.99
2019-04-05T13:46:49.255Z,48.03
2019-04-05T13:49:20.431Z,48.11
2019-04-05T13:51:50.766Z,48.11
2019-04-05T13:54:21.186Z,48.08
2019-04-05T13:56:51.717Z,48.02
2019-04-05T13:59:22.136Z,47.99
2019-04-05T14:02:05.562Z,47.99
2019-04-05T14:04:29.726Z,47.88
2019-04-05T14:07:07.469Z,47.81
2019-04-05T14:09:40.367Z,47.80
2019-04-05T14:12:10.262Z,47.80
2019-04-05T14:14:41.505Z,47.70
2019-04-05T14:17:13.776Z,47.75
2019-04-05T14:19:46.717Z,47.77
2019-04-05T14:22:22.225Z,47.80
2019-04-05T14:24:52.575Z,47.83
2019-04-05T14:27:24.241Z,47.95
2019-04-05T14:29:54.682Z,48.02
2019-04-05T14:32:25.547Z,48.02
2019-04-05T14:34:55.953Z,48.01
2019-04-05T14:37:27.639Z,47.92
2019-04-05T14:39:58.010Z,48.00
2019-04-05T14:42:29.812Z,47.94
2019-04-05T14:45:00.690Z,48.04
2019-04-05T14:47:31.079Z,47.97
2019-04-05T14:50:01.861Z,47.96
2019-04-05T14:52:32.197Z,47.97
2019-04-05T14:55:05.839Z,47.93
2019-04-05T14:57:36.710Z,47.82
2019-04-05T15:00:08.029Z,47.71
2019-04-05T15:02:38.449Z,47.63
2019-04-05T15:05:08.882Z,47.54
2019-04-05T15:07:39.575Z,47.47
2019-04-05T15:10:09.988Z,47.41
2019-04-05T15:12:40.477Z,47.35
2019-04-05T15:15:10.944Z,47.32
2019-04-05T15:17:47.953Z,47.23
2019-04-05T15:20:16.409Z,47.16
2019-04-05T15:22:46.781Z,47.11
2019-04-05T15:25:21.266Z,47.11
2019-04-05T15:27:55.169Z,47.11
2019-04-05T15:30:21.481Z,47.13
2019-04-05T15:32:57.766Z,47.09
2019-04-05T15:35:28.804Z,47.04
2019-04-05T15:38:02.163Z,47.06
2019-04-05T15:40:31.768Z,47.07
2019-04-05T15:43:02.094Z,47.03
2019-04-05T15:45:32.391Z,47.01
2019-04-05T15:48:03.145Z,46.95
2019-04-05T15:50:35.638Z,46.89
2019-04-05T15:53:06.065Z,46.84
2019-04-05T15:55:38.248Z,46.77
2019-04-05T15:58:08.670Z,46.71
2019-04-05T16:00:42.198Z,46.64
2019-04-05T16:03:13.099Z,46.59
2019-04-05T16:05:45.063Z,46.55
2019-04-05T16:08:18.435Z,46.48
2019-04-05T16:10:48.834Z,46.43
2019-04-05T16:13:19.217Z,46.34
2019-04-05T16:15:49.531Z,46.31
2019-04-05T16:18:20.006Z,46.27
2019-04-05T16:20:50.703Z,46.28
2019-04-05T16:23:22.009Z,46.25
2019-04-05T16:25:53.185Z,46.23
2019-04-05T16:28:23.571Z,46.21
2019-04-05T16:30:55.324Z,46.16
2019-04-05T16:33:25.651Z,46.15
2019-04-05T16:35:56.280Z,46.09
2019-04-05T16:38:28.773Z,46.06
2019-04-05T16:40:59.149Z,46.01
2019-04-05T16:43:29.515Z,45.99
2019-04-05T16:45:59.881Z,45.97
2019-04-05T16:51:47.222Z,45.92
2019-04-05T16:54:17.707Z,45.90
2019-04-05T16:56:48.009Z,45.86
2019-04-05T16:59:18.517Z,45.84
2019-04-05T17:01:49.033Z,45.83
2019-04-05T17:04:19.698Z,45.82
2019-04-05T17:06:50.075Z,45.79
2019-04-05T17:09:21.489Z,45.79
2019-04-05T17:11:51.832Z,45.77
2019-04-05T17:14:23.336Z,45.77
2019-04-05T17:16:53.909Z,45.76
2019-04-05T17:19:26.514Z,45.75
2019-04-05T17:21:56.956Z,45.73
2019-04-05T17:24:27.298Z,45.74
2019-04-05T17:26:57.713Z,45.71
2019-04-05T17:29:28.092Z,45.71
2019-04-05T17:31:58.281Z,45.70
2019-04-05T17:34:28.909Z,45.71
2019-04-05T17:36:59.276Z,45.69
2019-04-05T17:39:30.051Z,45.69
2019-04-05T17:42:00.494Z,45.69
2019-04-05T17:44:30.964Z,45.68
2019-04-05T17:47:02.499Z,45.71
2019-04-05T17:49:32.949Z,45.69
2019-04-05T17:52:03.635Z,45.69
2019-04-05T17:57:23.377Z,45.67
2019-04-05T17:59:55.003Z,45.68
2019-04-05T18:02:26.460Z,45.69
2019-04-05T18:04:56.859Z,45.69
2019-04-05T18:07:27.179Z,45.71
2019-04-05T18:09:57.550Z,45.70
2019-04-05T18:12:27.945Z,45.72
2019-04-05T18:14:58.235Z,45.72
2019-04-05T18:17:28.616Z,45.73
2019-04-05T18:19:59.019Z,45.72
2019-04-05T18:22:29.341Z,45.74
2019-04-05T18:24:59.757Z,45.73
2019-04-05T18:27:30.118Z,45.74
2019-04-05T18:30:00.490Z,45.71
2019-04-05T18:32:31.389Z,45.72
2019-04-05T18:35:01.983Z,45.75
2019-04-05T18:37:35.264Z,45.75
2019-04-05T18:40:06.579Z,45.77
2019-04-05T18:42:37.356Z,45.76
2019-04-05T18:45:08.514Z,45.78
2019-04-05T18:47:38.916Z,45.78
2019-04-05T18:50:09.446Z,45.79
2019-04-05T18:52:40.207Z,45.80
2019-04-05T18:55:10.752Z,45.79
2019-04-05T18:57:41.214Z,45.82
2019-04-05T19:00:11.756Z,45.84
2019-04-05T19:02:42.175Z,45.86
2019-04-05T19:05:12.520Z,45.91
2019-04-05T19:07:43.432Z,45.91
2019-04-05T19:10:13.757Z,45.91
2019-04-05T19:12:44.471Z,45.89
2019-04-05T19:15:15.243Z,45.91
2019-04-05T19:17:45.576Z,45.92
2019-04-05T19:20:15.892Z,45.98
2019-04-05T19:22:46.211Z,45.98
2019-04-05T19:25:16.602Z,46.02
2019-04-05T19:27:47.082Z,46.03
2019-04-05T19:50:38.228Z,46.23
2019-04-05T19:53:08.571Z,46.24
2019-04-05T19:55:39.009Z,46.31
2019-04-05T19:58:10.057Z,46.33
2019-04-05T20:00:40.354Z,46.32
2019-04-05T20:03:10.676Z,46.37
2019-04-05T20:05:40.998Z,46.38
2019-04-05T20:08:11.381Z,46.39
2019-04-05T20:10:41.774Z,46.42
2019-04-05T20:13:12.178Z,46.43
2019-04-05T20:15:42.661Z,46.47
2019-04-05T20:18:13.021Z,46.51
2019-04-05T20:20:43.531Z,46.51
2019-04-05T20:23:13.972Z,46.54
2019-04-05T20:25:44.378Z,46.56
2019-04-05T20:28:14.860Z,46.57
2019-04-05T20:30:45.518Z,46.57
2019-04-05T20:33:15.954Z,46.62
2019-04-05T20:35:46.295Z,46.64
2019-04-05T20:38:18.209Z,46.67
2019-04-05T20:40:48.577Z,46.70
2019-04-05T20:43:19.552Z,46.71
2019-04-05T20:45:50.015Z,46.75
2019-04-05T20:48:20.439Z,46.75
2019-04-05T20:50:50.786Z,46.75
2019-04-05T20:53:21.148Z,46.75
2019-04-05T20:55:53.852Z,46.77
2019-04-05T20:58:24.209Z,46.83
2019-04-05T21:00:54.624Z,46.84
2019-04-05T21:03:25.197Z,46.87
2019-04-05T21:05:55.567Z,46.85
2019-04-05T21:08:26.041Z,46.88
2019-04-05T21:10:56.427Z,46.91
2019-04-05T21:13:26.992Z,46.93
2019-04-05T21:15:57.381Z,46.93
2019-04-05T21:18:27.854Z,46.96
2019-04-05T21:20:58.243Z,46.86
2019-04-05T21:23:28.630Z,46.86
2019-04-05T21:25:59.005Z,46.96
2019-04-05T21:28:29.373Z,47.07
2019-04-05T21:30:59.769Z,47.07
2019-04-05T21:33:30.174Z,46.99
2019-04-05T21:36:00.552Z,46.99
2019-04-05T21:38:30.960Z,47.00
2019-04-05T21:41:02.115Z,47.00
2019-04-05T21:43:32.740Z,47.03
2019-04-05T21:46:03.204Z,47.05
2019-04-05T21:48:33.552Z,47.06
2019-04-05T21:51:03.877Z,47.07
2019-04-05T21:53:35.830Z,47.07
2019-04-05T21:56:06.255Z,47.09
2019-04-05T21:58:36.627Z,47.12
2019-04-05T22:01:10.446Z,47.27
2019-04-05T22:03:41.173Z,47.27
2019-04-05T22:06:11.634Z,47.17
2019-04-05T22:08:43.227Z,47.18
2019-04-05T22:11:13.742Z,47.21
2019-04-05T22:13:45.377Z,47.24
2019-04-05T22:16:15.771Z,47.25
2019-04-05T22:18:46.202Z,47.28
2019-04-05T22:21:16.657Z,47.33
2019-04-05T22:23:47.040Z,47.41
2019-04-05T22:26:17.878Z,47.42
2019-04-05T22:28:48.379Z,47.43
2019-04-05T22:31:19.963Z,47.43
2019-04-05T22:33:50.864Z,47.47
2019-04-05T22:36:21.304Z,47.48
2019-04-05T22:38:51.791Z,47.50
2019-04-05T22:41:22.331Z,47.51
2019-04-05T22:43:52.728Z,47.55
2019-04-05T22:46:23.125Z,47.58
2019-04-05T22:48:53.464Z,47.59
2019-04-05T22:51:23.841Z,47.62
2019-04-05T22:53:54.273Z,47.64
2019-04-05T22:56:24.689Z,47.67
2019-04-05T22:58:55.483Z,47.71
2019-04-05T23:01:25.838Z,47.72
2019-04-05T23:03:56.191Z,47.73
2019-04-05T23:06:26.594Z,47.79
2019-04-05T23:08:56.911Z,47.86
2019-04-05T23:11:27.301Z,47.86
2019-04-05T23:13:57.694Z,47.94
2019-04-05T23:16:28.087Z,47.94
2019-04-05T23:18:58.514Z,47.95
2019-04-05T23:21:28.859Z,48.00
2019-04-05T23:23:59.310Z,48.07
2019-04-05T23:26:30.081Z,48.08
2019-04-05T23:29:00.866Z,48.10
2019-04-05T23:31:31.589Z,48.13
2019-04-05T23:34:02.004Z,48.17
2019-04-05T23:36:32.349Z,48.20
2019-04-05T23:39:02.753Z,48.21
2019-04-05T23:41:33.434Z,48.22
2019-04-05T23:44:04.073Z,48.25
2019-04-05T23:46:35.118Z,48.27
2019-04-05T23:49:05.524Z,48.29
2019-04-05T23:51:36.006Z,48.32
2019-04-05T23:54:06.426Z,48.34
2019-04-05T23:56:36.881Z,48.36
2019-04-05T23:59:07.336Z,48.35
